Time;durP1;ratioP1;P1;durP2;ratioP2;P2;SDS_P1;SDS_P2;PMS_P1;PMS_P2;Temp;Humidity;BMP_temperature;BMP_pressure;BME280_temperature;BME280_humidity;BME280_pressure;Samples;Min_cycle;Max_cycle;Signal;HPM_P1;HPM_P2
2021/06/07 00:01:42;;;;;;;23.07;20.70;;;17.50;99.90;;;;;;5054608;28;20239;-72
2021/06/07 00:04:09;;;;;;;22.63;19.63;;;17.40;99.90;;;;;;5054868;28;20770;-72
2021/06/07 00:06:36;;;;;;;22.00;19.60;;;17.40;99.90;;;;;;5052859;28;20441;-73
2021/06/07 00:09:05;;;;;;;22.90;20.50;;;17.30;99.90;;;;;;5054745;28;20420;-72
2021/06/07 00:11:31;;;;;;;25.33;22.80;;;17.30;99.90;;;;;;5054503;28;20420;-71
2021/06/07 00:13:57;;;;;;;25.00;21.50;;;17.40;99.90;;;;;;5054288;28;20181;-72
2021/06/07 00:16:23;;;;;;;23.30;20.60;;;17.40;99.90;;;;;;5053057;28;20961;-73
2021/06/07 00:18:48;;;;;;;24.47;22.10;;;17.40;99.90;;;;;;5054299;28;20543;-72
2021/06/07 00:21:18;;;;;;;24.87;22.27;;;17.40;99.90;;;;;;5054090;28;20221;-72
2021/06/07 00:23:44;;;;;;;24.37;21.87;;;17.30;99.90;;;;;;5054104;28;20179;-72
2021/06/07 00:26:10;;;;;;;25.13;22.30;;;17.30;99.90;;;;;;5054242;28;20531;-72
2021/06/07 00:28:36;;;;;;;23.00;20.53;;;17.20;99.90;;;;;;5054378;28;20504;-73
2021/06/07 00:31:03;;;;;;;26.20;23.00;;;17.20;99.90;;;;;;5054234;28;20596;-73
2021/06/07 00:33:29;;;;;;;24.00;21.60;;;17.30;99.90;;;;;;5054453;28;20421;-73
2021/06/07 00:35:55;;;;;;;27.77;23.30;;;17.20;99.90;;;;;;5052893;28;20440;-73
2021/06/07 00:38:21;;;;;;;24.77;22.07;;;17.20;99.90;;;;;;5054600;28;20771;-73
2021/06/07 00:40:47;;;;;;;25.00;22.30;;;17.20;99.90;;;;;;5054721;28;20263;-72
2021/06/07 00:43:13;;;;;;;24.70;22.00;;;17.30;99.90;;;;;;5058637;28;20409;-72
2021/06/07 00:45:40;;;;;;;24.37;21.97;;;17.30;99.90;;;;;;5054458;28;20283;-73
2021/06/07 00:48:06;;;;;;;25.07;22.47;;;17.40;99.90;;;;;;5053689;28;20467;-73
2021/06/07 00:50:47;;;;;;;23.63;21.13;;;17.30;99.90;;;;;;5053760;28;20913;-73
2021/06/07 00:53:15;;;;;;;24.90;21.17;;;17.30;99.90;;;;;;5053752;28;20466;-73
2021/06/07 00:55:54;;;;;;;27.40;24.60;;;17.30;99.90;;;;;;5053689;28;20515;-73
2021/06/07 00:58:27;;;;;;;24.33;21.73;;;17.30;99.90;;;;;;5053510;28;20824;-73
2021/06/07 01:00:54;;;;;;;26.13;22.50;;;17.30;99.90;;;;;;5052536;28;20886;-73
2021/06/07 01:03:21;;;;;;;25.02;22.33;;;17.30;99.90;;;;;;5052976;28;20443;-73
2021/06/07 01:05:49;;;;;;;23.47;20.97;;;17.30;99.90;;;;;;5054265;28;20200;-72
2021/06/07 01:08:15;;;;;;;24.80;22.30;;;17.30;99.90;;;;;;5056381;28;20400;-73
2021/06/07 01:10:42;;;;;;;24.87;22.03;;;17.30;99.90;;;;;;5053348;28;20408;-73
2021/06/07 01:13:08;;;;;;;26.30;21.73;;;17.30;99.90;;;;;;5053483;28;20766;-73
2021/06/07 01:15:34;;;;;;;24.70;20.90;;;17.20;99.90;;;;;;5053000;28;20477;-73
2021/06/07 01:17:59;;;;;;;28.70;25.70;;;17.20;99.90;;;;;;5051173;28;20411;-73
2021/06/07 01:20:26;;;;;;;27.07;24.17;;;17.20;99.90;;;;;;5053271;28;20556;-73
2021/06/07 01:22:52;;;;;;;25.17;22.50;;;17.10;99.90;;;;;;5053718;28;20166;-73
2021/06/07 01:25:45;;;;;;;25.13;22.47;;;17.20;99.90;;;;;;5053298;28;20834;-73
2021/06/07 01:28:14;;;;;;;26.60;22.23;;;17.10;99.90;;;;;;5053218;28;20804;-73
2021/06/07 01:30:42;;;;;;;29.60;26.60;;;17.10;99.90;;;;;;5051076;28;20430;-73
2021/06/07 01:33:10;;;;;;;27.10;24.33;;;17.10;99.90;;;;;;5052882;28;20273;-72
2021/06/07 01:35:37;;;;;;;26.80;24.07;;;17.00;99.90;;;;;;5052845;28;21039;-73
2021/06/07 01:38:03;;;;;;;27.23;24.43;;;17.00;99.90;;;;;;5053103;28;20452;-73
2021/06/07 01:40:35;;;;;;;25.20;22.43;;;17.00;99.90;;;;;;5052794;28;20547;-73
2021/06/07 01:43:01;;;;;;;26.05;23.20;;;17.10;99.90;;;;;;5052602;28;20399;-73
2021/06/07 01:45:28;;;;;;;24.37;21.80;;;17.20;99.90;;;;;;5052732;28;20190;-73
2021/06/07 01:47:57;;;;;;;24.13;21.57;;;17.20;99.90;;;;;;5054506;28;20415;-73
2021/06/07 01:50:23;;;;;;;25.00;22.33;;;17.20;99.90;;;;;;5057107;28;20774;-73
2021/06/07 01:52:49;;;;;;;24.80;22.20;;;17.20;99.90;;;;;;5056110;28;20476;-73
2021/06/07 01:55:19;;;;;;;26.88;24.17;;;17.10;99.90;;;;;;5056949;28;20819;-73
2021/06/07 01:57:45;;;;;;;24.47;21.90;;;17.10;99.90;;;;;;5056550;28;20174;-73
2021/06/07 02:00:25;;;;;;;25.87;23.17;;;17.10;99.90;;;;;;5056226;28;20835;-73
2021/06/07 02:02:50;;;;;;;27.70;23.50;;;17.00;99.90;;;;;;5057134;28;20385;-73
2021/06/07 02:05:24;;;;;;;24.87;22.10;;;17.10;99.90;;;;;;5056961;28;20432;-74
2021/06/07 02:07:51;;;;;;;26.27;23.63;;;17.10;99.90;;;;;;5057248;28;20522;-73
2021/06/07 02:10:18;;;;;;;28.05;25.35;;;17.10;99.90;;;;;;5055589;28;20418;-73
2021/06/07 02:12:43;;;;;;;26.00;23.20;;;17.10;99.90;;;;;;5056630;28;20193;-73
2021/06/07 02:15:11;;;;;;;25.63;22.97;;;17.00;99.90;;;;;;5056479;28;20421;-73
2021/06/07 02:17:36;;;;;;;25.80;22.10;;;17.00;99.90;;;;;;5057095;28;20271;-73
2021/06/07 02:20:09;;;;;;;23.37;21.00;;;17.00;99.90;;;;;;5055846;28;20499;-73
2021/06/07 02:22:37;;;;;;;24.03;21.63;;;17.00;99.90;;;;;;5055403;28;20423;-73
2021/06/07 02:25:04;;;;;;;25.43;20.50;;;17.00;99.90;;;;;;5056503;28;20432;-72
2021/06/07 02:27:30;;;;;;;23.40;20.70;;;17.00;99.90;;;;;;5056673;28;20921;-74
2021/06/07 02:29:57;;;;;;;25.20;20.77;;;16.90;99.90;;;;;;5056432;28;20890;-72
2021/06/07 02:32:23;;;;;;;22.63;20.30;;;16.90;99.90;;;;;;5056361;28;20428;-72
2021/06/07 02:34:49;;;;;;;23.42;20.92;;;16.90;99.90;;;;;;5056058;28;20718;-72
2021/06/07 02:37:15;;;;;;;22.60;20.10;;;17.00;99.90;;;;;;5056234;28;20277;-72
2021/06/07 02:39:40;;;;;;;26.70;22.63;;;17.00;99.90;;;;;;5054939;28;20248;-72
2021/06/07 02:42:06;;;;;;;27.00;21.93;;;17.00;99.90;;;;;;5056282;28;20205;-72
2021/06/07 02:44:32;;;;;;;26.00;22.70;;;17.00;99.90;;;;;;5056254;28;20166;-72
2021/06/07 02:46:58;;;;;;;29.43;25.13;;;17.00;99.90;;;;;;5055639;28;20483;-72
2021/06/07 02:49:23;;;;;;;32.03;27.10;;;17.00;99.90;;;;;;5056500;28;20169;-72
2021/06/07 02:51:49;;;;;;;33.03;26.63;;;17.00;99.90;;;;;;5057683;28;20182;-72
2021/06/07 02:54:14;;;;;;;30.00;24.93;;;16.90;99.90;;;;;;5057548;28;20185;-73
2021/06/07 02:56:40;;;;;;;29.03;25.00;;;16.90;99.90;;;;;;5056431;28;20559;-73
2021/06/07 02:59:05;;;;;;;29.30;25.03;;;16.90;99.90;;;;;;5054863;28;20182;-73
2021/06/07 03:01:31;;;;;;;28.53;25.37;;;17.00;99.90;;;;;;5036742;28;20524;-72
2021/06/07 03:03:57;;;;;;;32.90;25.30;;;17.00;99.90;;;;;;5047653;28;20769;-73
2021/06/07 03:06:22;;;;;;;29.23;22.73;;;17.10;99.90;;;;;;5053501;28;20205;-73
2021/06/07 03:08:48;;;;;;;28.80;23.97;;;17.10;99.90;;;;;;5053591;28;20532;-73
2021/06/07 03:11:13;;;;;;;30.77;26.00;;;17.10;99.90;;;;;;5053698;28;20253;-72
2021/06/07 03:13:40;;;;;;;30.37;24.83;;;17.10;99.90;;;;;;5053386;28;20177;-73
2021/06/07 03:16:06;;;;;;;31.63;25.47;;;17.00;99.90;;;;;;5053336;28;20201;-73
2021/06/07 03:18:32;;;;;;;28.30;24.03;;;16.90;99.90;;;;;;5053631;28;20462;-72
2021/06/07 03:20:58;;;;;;;26.80;22.67;;;16.90;99.90;;;;;;5053895;28;20467;-72
2021/06/07 03:23:30;;;;;;;26.17;22.80;;;16.90;99.90;;;;;;5052198;28;20420;-72
2021/06/07 03:25:56;;;;;;;29.07;24.00;;;16.90;99.90;;;;;;5053748;28;20191;-72
2021/06/07 03:28:22;;;;;;;28.80;25.60;;;16.90;99.90;;;;;;5055610;28;20487;-72
2021/06/07 03:30:50;;;;;;;25.63;22.77;;;16.90;99.90;;;;;;5055359;28;20174;-72
2021/06/07 03:33:18;;;;;;;26.87;22.80;;;16.90;99.90;;;;;;5054860;28;20413;-73
2021/06/07 03:35:44;;;;;;;24.23;21.53;;;17.00;99.90;;;;;;5054895;28;20478;-72
2021/06/07 03:38:11;;;;;;;26.13;22.87;;;17.00;99.90;;;;;;5055435;28;20462;-72
2021/06/07 03:40:40;;;;;;;25.53;22.17;;;17.00;99.90;;;;;;5055307;28;20448;-72
2021/06/07 03:43:06;;;;;;;23.20;20.70;;;17.00;99.90;;;;;;5055542;28;20961;-72
2021/06/07 03:45:32;;;;;;;23.23;20.60;;;17.00;99.90;;;;;;5054710;28;20512;-73
2021/06/07 03:47:58;;;;;;;24.23;21.10;;;17.00;99.90;;;;;;5055676;28;20436;-72
2021/06/07 03:50:25;;;;;;;22.80;20.40;;;17.00;99.90;;;;;;5055037;28;20572;-72
2021/06/07 03:52:51;;;;;;;25.20;22.20;;;17.00;99.90;;;;;;5048346;28;20568;-72
2021/06/07 03:55:20;;;;;;;21.97;19.77;;;17.10;99.90;;;;;;5040536;28;20456;-71
2021/06/07 03:57:46;;;;;;;26.37;23.03;;;17.10;99.90;;;;;;5053994;28;20921;-72
2021/06/07 04:00:16;;;;;;;25.37;21.63;;;17.10;99.90;;;;;;5045677;28;20433;-72
2021/06/07 04:02:43;;;;;;;25.27;21.90;;;17.10;99.90;;;;;;5040620;28;20281;-72
2021/06/07 04:05:10;;;;;;;24.50;21.57;;;17.20;99.90;;;;;;5042356;28;20446;-73
2021/06/07 04:07:36;;;;;;;26.00;23.10;;;17.20;99.90;;;;;;5047385;28;20425;-72
2021/06/07 04:10:07;;;;;;;28.93;24.43;;;17.20;99.90;;;;;;5055502;28;20405;-72
2021/06/07 04:12:33;;;;;;;31.27;25.73;;;17.20;99.90;;;;;;5049145;28;20441;-72
2021/06/07 04:14:58;;;;;;;27.07;22.57;;;17.20;99.90;;;;;;5059503;28;20486;-72
2021/06/07 04:17:24;;;;;;;28.33;23.57;;;17.30;99.90;;;;;;5054313;28;20182;-73
2021/06/07 04:19:50;;;;;;;26.83;23.93;;;17.30;99.90;;;;;;5057884;28;20408;-71
2021/06/07 04:22:15;;;;;;;27.27;22.50;;;17.30;99.90;;;;;;5056030;28;20198;-73
2021/06/07 04:24:45;;;;;;;25.97;23.17;;;17.30;99.90;;;;;;5055703;28;20461;-73
2021/06/07 04:27:13;;;;;;;27.30;23.80;;;17.20;99.90;;;;;;5053921;28;20175;-73
2021/06/07 04:29:41;;;;;;;27.73;24.67;;;17.20;99.90;;;;;;5051962;28;20421;-73
2021/06/07 04:32:08;;;;;;;26.20;23.17;;;17.20;99.90;;;;;;5039371;28;20432;-72
2021/06/07 04:34:34;;;;;;;28.33;23.93;;;17.10;99.90;;;;;;5048210;28;20439;-73
2021/06/07 04:36:59;;;;;;;28.30;23.97;;;17.00;99.90;;;;;;5036949;28;20503;-73
2021/06/07 04:39:25;;;;;;;31.43;22.37;;;17.00;99.90;;;;;;5040304;28;20480;-73
2021/06/07 04:41:51;;;;;;;27.13;24.27;;;16.90;99.90;;;;;;5050547;28;20225;-73
2021/06/07 04:44:17;;;;;;;27.07;23.77;;;16.80;99.90;;;;;;5050575;28;20174;-73
2021/06/07 04:46:43;;;;;;;27.52;24.35;;;16.80;99.90;;;;;;5048735;28;20415;-72
2021/06/07 04:49:08;;;;;;;26.00;23.20;;;16.80;99.90;;;;;;5050707;28;20171;-73
2021/06/07 04:51:34;;;;;;;23.90;21.47;;;16.70;99.90;;;;;;5047338;28;20261;-73
2021/06/07 04:54:00;;;;;;;28.17;24.97;;;16.70;99.90;;;;;;5047182;28;20658;-72
2021/06/07 04:56:26;;;;;;;27.60;24.57;;;16.70;99.90;;;;;;5052994;28;20965;-72
2021/06/07 04:58:52;;;;;;;29.63;25.83;;;16.60;99.90;;;;;;5052453;28;20501;-72
2021/06/07 05:01:17;;;;;;;25.93;22.37;;;16.60;99.90;;;;;;5050816;28;20238;-73
2021/06/07 05:03:43;;;;;;;28.57;24.00;;;16.70;99.90;;;;;;5039253;28;20241;-72
2021/06/07 05:06:09;;;;;;;27.70;24.60;;;16.80;99.90;;;;;;5041362;28;20203;-72
2021/06/07 05:08:34;;;;;;;26.53;22.93;;;16.90;99.90;;;;;;5046908;28;20261;-72
2021/06/07 05:11:00;;;;;;;26.80;23.50;;;17.00;99.90;;;;;;5040060;28;20512;-72
2021/06/07 05:13:27;;;;;;;24.67;21.97;;;16.90;99.90;;;;;;5052081;28;20547;-72
2021/06/07 05:15:54;;;;;;;26.83;22.87;;;16.90;99.90;;;;;;5050571;28;20451;-71
2021/06/07 05:18:20;;;;;;;24.27;20.77;;;16.80;99.90;;;;;;5050895;28;20421;-73
2021/06/07 05:20:46;;;;;;;27.23;22.97;;;16.90;99.90;;;;;;5052031;28;20491;-72
2021/06/07 05:23:12;;;;;;;28.20;22.43;;;17.00;99.90;;;;;;5050563;28;20198;-72
2021/06/07 05:25:40;;;;;;;25.27;22.10;;;17.00;99.90;;;;;;5050627;28;20425;-72
2021/06/07 05:28:09;;;;;;;27.83;24.30;;;17.10;99.90;;;;;;5052090;28;20440;-72
2021/06/07 05:30:36;;;;;;;32.37;26.50;;;17.00;99.90;;;;;;5052415;28;20453;-73
2021/06/07 05:33:03;;;;;;;33.73;27.17;;;17.10;99.90;;;;;;5050322;28;20423;-72
2021/06/07 05:35:33;;;;;;;33.23;27.10;;;17.10;99.90;;;;;;5052440;28;20459;-72
2021/06/07 05:37:59;;;;;;;30.97;25.40;;;17.10;99.90;;;;;;5051078;28;20440;-72
2021/06/07 05:40:27;;;;;;;30.10;25.90;;;17.10;99.90;;;;;;5051608;28;20507;-72
2021/06/07 05:42:53;;;;;;;30.63;25.00;;;17.00;99.90;;;;;;5052055;28;20412;-72
2021/06/07 05:45:19;;;;;;;30.87;25.93;;;17.10;99.90;;;;;;5052281;28;21020;-72
2021/06/07 05:47:45;;;;;;;34.27;26.30;;;17.10;99.90;;;;;;5051961;28;20428;-71
2021/06/07 05:50:15;;;;;;;28.03;24.40;;;17.00;99.90;;;;;;5051908;28;20519;-73
2021/06/07 05:52:46;;;;;;;29.37;23.73;;;17.10;99.90;;;;;;5052821;28;20420;-73
2021/06/07 05:55:23;;;;;;;32.60;27.10;;;17.10;99.90;;;;;;5052614;28;20420;-72
2021/06/07 05:57:51;;;;;;;29.60;24.37;;;17.10;99.90;;;;;;5053677;28;20453;-73
2021/06/07 06:00:20;;;;;;;31.73;26.40;;;17.10;99.90;;;;;;5061095;28;20480;-73
2021/06/07 06:02:46;;;;;;;30.47;25.47;;;17.10;99.90;;;;;;5061327;28;20429;-73
2021/06/07 06:05:12;;;;;;;31.98;28.50;;;17.10;99.90;;;;;;5056475;28;20407;-72
2021/06/07 06:07:38;;;;;;;27.07;23.67;;;17.30;99.90;;;;;;5052816;28;20174;-72
2021/06/07 06:10:04;;;;;;;31.03;27.00;;;17.40;99.90;;;;;;5052892;28;20488;-72
2021/06/07 06:12:30;;;;;;;28.93;24.23;;;17.40;99.90;;;;;;5052536;28;20182;-73
2021/06/07 06:14:56;;;;;;;26.63;23.37;;;17.40;99.90;;;;;;5053168;28;20445;-72
2021/06/07 06:17:22;;;;;;;26.43;22.87;;;17.50;99.90;;;;;;5052619;28;20495;-72
2021/06/07 06:19:48;;;;;;;28.63;24.37;;;17.60;99.90;;;;;;5052617;28;20189;-72
2021/06/07 06:22:14;;;;;;;24.97;22.40;;;17.60;99.90;;;;;;5052494;28;20448;-73
2021/06/07 06:24:40;;;;;;;29.07;24.90;;;17.50;99.90;;;;;;5052175;28;20714;-73
2021/06/07 06:27:06;;;;;;;31.57;24.13;;;17.40;99.90;;;;;;5052896;28;20413;-73
2021/06/07 06:29:32;;;;;;;30.93;23.80;;;17.30;99.90;;;;;;5051654;28;20440;-73
2021/06/07 06:31:57;;;;;;;30.13;25.93;;;17.40;99.90;;;;;;5051619;28;20913;-73
2021/06/07 06:34:23;;;;;;;29.47;25.17;;;17.50;99.90;;;;;;5053460;28;20217;-73
2021/06/07 06:36:49;;;;;;;26.77;22.80;;;17.60;99.90;;;;;;5056628;28;20190;-73
2021/06/07 06:39:14;;;;;;;24.97;22.27;;;17.60;99.90;;;;;;5056722;28;20182;-73
2021/06/07 06:41:40;;;;;;;28.30;23.93;;;17.70;99.90;;;;;;5056514;28;20202;-72
2021/06/07 06:44:06;;;;;;;35.80;26.03;;;17.90;99.90;;;;;;5055895;28;20178;-72
2021/06/07 06:46:31;;;;;;;28.87;25.33;;;17.80;99.90;;;;;;5056051;28;20186;-72
2021/06/07 06:48:57;;;;;;;39.57;26.90;;;17.80;99.90;;;;;;5056455;28;20207;-72
2021/06/07 06:51:22;;;;;;;29.50;23.43;;;17.90;99.90;;;;;;5055719;28;20233;-73
2021/06/07 06:53:48;;;;;;;29.10;23.93;;;18.10;99.90;;;;;;5056166;28;20181;-73
2021/06/07 06:56:15;;;;;;;27.47;24.30;;;18.20;99.90;;;;;;5054365;28;20237;-71
2021/06/07 06:58:40;;;;;;;30.83;25.83;;;18.30;99.90;;;;;;5055984;28;20443;-71
2021/06/07 07:01:07;;;;;;;30.47;24.80;;;18.30;99.90;;;;;;5056016;28;20555;-71
2021/06/07 07:03:33;;;;;;;31.87;26.27;;;18.50;99.90;;;;;;5055809;28;20530;-73
2021/06/07 07:05:58;;;;;;;27.50;24.60;;;18.60;99.90;;;;;;5055697;28;20452;-72
2021/06/07 07:08:24;;;;;;;33.05;26.88;;;18.60;99.90;;;;;;5055367;28;20706;-71
2021/06/07 07:10:50;;;;;;;39.03;29.53;;;18.70;99.90;;;;;;5055221;28;20166;-71
2021/06/07 07:13:16;;;;;;;35.70;29.43;;;18.70;99.90;;;;;;5055691;28;20893;-71
2021/06/07 07:15:42;;;;;;;39.03;29.90;;;18.50;99.90;;;;;;5055389;28;20474;-71
2021/06/07 07:18:09;;;;;;;41.60;33.50;;;18.50;99.90;;;;;;5055508;28;20209;-72
2021/06/07 07:20:35;;;;;;;40.80;32.20;;;18.30;99.90;;;;;;5055685;28;20436;-71
2021/06/07 07:23:02;;;;;;;38.47;31.13;;;18.20;99.90;;;;;;5055258;28;20411;-72
2021/06/07 07:25:28;;;;;;;44.37;32.83;;;18.00;99.90;;;;;;5053987;28;20494;-71
2021/06/07 07:27:54;;;;;;;50.47;34.70;;;18.10;99.90;;;;;;5055013;28;20809;-71
2021/06/07 07:30:21;;;;;;;44.60;33.90;;;18.00;99.90;;;;;;5055317;28;20205;-73
2021/06/07 07:32:49;;;;;;;45.03;33.83;;;17.90;99.90;;;;;;5054766;28;20693;-72
2021/06/07 07:35:16;;;;;;;53.00;36.73;;;18.00;99.90;;;;;;5053625;28;20929;-73
2021/06/07 07:37:43;;;;;;;44.30;32.77;;;18.00;99.90;;;;;;5054864;28;20424;-73
2021/06/07 07:40:11;;;;;;;45.43;33.93;;;17.90;99.90;;;;;;5055668;28;20408;-73
2021/06/07 07:42:37;;;;;;;42.70;33.40;;;18.00;99.90;;;;;;5054390;28;20468;-73
2021/06/07 07:45:05;;;;;;;48.90;32.93;;;18.20;99.90;;;;;;5054554;28;20463;-73
2021/06/07 07:47:31;;;;;;;47.50;34.07;;;18.30;99.90;;;;;;5055206;28;20917;-73
2021/06/07 07:49:57;;;;;;;45.72;37.17;;;18.50;99.90;;;;;;5054367;28;20404;-73
2021/06/07 07:52:23;;;;;;;43.83;34.47;;;18.60;99.90;;;;;;5055455;28;20217;-73
2021/06/07 07:54:50;;;;;;;48.03;35.00;;;18.70;99.90;;;;;;5054818;28;20202;-73
2021/06/07 07:57:16;;;;;;;43.10;31.33;;;18.70;99.90;;;;;;5055403;28;20878;-73
2021/06/07 07:59:41;;;;;;;42.40;33.13;;;18.90;99.90;;;;;;5054513;28;20444;-73
2021/06/07 08:02:08;;;;;;;42.33;32.53;;;19.00;99.90;;;;;;5054992;28;20202;-73
2021/06/07 08:04:34;;;;;;;38.07;30.17;;;18.80;99.90;;;;;;5054471;28;20224;-73
2021/06/07 08:06:59;;;;;;;38.63;29.13;;;18.60;99.90;;;;;;5054539;28;20393;-73
2021/06/07 08:09:26;;;;;;;40.40;30.10;;;18.80;99.90;;;;;;5054375;28;20174;-73
2021/06/07 08:11:51;;;;;;;42.17;29.80;;;18.90;99.90;;;;;;5055264;28;20546;-72
2021/06/07 08:14:17;;;;;;;39.70;28.87;;;19.10;99.90;;;;;;5054598;28;20415;-73
2021/06/07 08:16:44;;;;;;;38.78;29.73;;;19.20;99.90;;;;;;5053040;28;20458;-72
2021/06/07 08:19:10;;;;;;;39.90;29.90;;;19.20;99.90;;;;;;5057168;28;20170;-72
2021/06/07 08:21:36;;;;;;;35.50;30.03;;;19.20;99.90;;;;;;5057027;28;20474;-73
2021/06/07 08:24:01;;;;;;;36.83;28.57;;;19.10;99.90;;;;;;5055532;28;20409;-73
2021/06/07 08:26:27;;;;;;;36.53;27.83;;;19.20;99.90;;;;;;5054925;28;20186;-72
2021/06/07 08:28:52;;;;;;;34.03;28.23;;;19.10;99.90;;;;;;5054554;28;20171;-72
2021/06/07 08:31:18;;;;;;;36.83;29.90;;;19.00;99.90;;;;;;5053859;28;20605;-72
2021/06/07 08:33:44;;;;;;;38.83;29.17;;;19.10;99.90;;;;;;5054071;28;20170;-72
2021/06/07 08:36:09;;;;;;;36.67;28.70;;;19.30;99.90;;;;;;5054094;28;20215;-72
2021/06/07 08:38:35;;;;;;;32.87;27.17;;;19.50;99.90;;;;;;5054182;28;20174;-72
2021/06/07 08:41:01;;;;;;;35.27;29.50;;;19.60;99.90;;;;;;5053422;28;20194;-72
2021/06/07 08:43:27;;;;;;;34.40;27.43;;;19.70;99.90;;;;;;5054084;28;20494;-72
2021/06/07 08:45:53;;;;;;;33.87;27.47;;;19.50;99.90;;;;;;5054511;28;20281;-72
2021/06/07 08:48:19;;;;;;;30.23;25.60;;;19.30;99.90;;;;;;5057404;28;20159;-72
2021/06/07 08:50:45;;;;;;;34.30;27.13;;;19.20;99.90;;;;;;5054920;28;20409;-72
2021/06/07 08:53:11;;;;;;;32.50;26.57;;;19.40;99.90;;;;;;5053833;28;20281;-72
2021/06/07 08:55:38;;;;;;;30.83;26.70;;;19.50;99.90;;;;;;5054904;28;20284;-73
2021/06/07 08:58:05;;;;;;;34.17;27.70;;;19.70;99.90;;;;;;5053094;28;20420;-72
2021/06/07 09:00:38;;;;;;;30.60;27.17;;;19.80;99.90;;;;;;5053366;28;20437;-72
2021/06/07 09:03:13;;;;;;;30.37;26.93;;;19.90;99.90;;;;;;5053932;28;20462;-72
2021/06/07 09:05:40;;;;;;;31.33;26.33;;;19.80;99.90;;;;;;5055711;28;20442;-72
2021/06/07 09:08:13;;;;;;;31.03;25.97;;;19.70;99.90;;;;;;5056798;28;20538;-72
2021/06/07 09:10:44;;;;;;;27.63;23.70;;;19.20;99.90;;;;;;5061129;28;20401;-72
2021/06/07 09:13:12;;;;;;;32.17;26.10;;;19.30;99.90;;;;;;5052982;28;20424;-72
2021/06/07 09:15:46;;;;;;;32.23;24.83;;;19.50;99.90;;;;;;5054095;28;20439;-72
2021/06/07 09:18:14;;;;;;;26.80;23.97;;;19.50;99.90;;;;;;5054650;28;20421;-73
2021/06/07 09:20:41;;;;;;;29.60;25.57;;;19.40;99.90;;;;;;5054785;28;20555;-74
2021/06/07 09:23:14;;;;;;;28.87;25.13;;;19.40;99.90;;;;;;5054640;28;20481;-71
2021/06/07 09:25:44;;;;;;;25.00;22.40;;;19.50;99.90;;;;;;5063692;28;20525;-72
2021/06/07 09:28:13;;;;;;;27.30;24.20;;;19.80;99.90;;;;;;5069664;28;20409;-72
2021/06/07 09:30:44;;;;;;;27.50;24.33;;;19.60;99.90;;;;;;5070200;28;20464;-73
2021/06/07 09:33:24;;;;;;;26.57;23.77;;;19.60;99.90;;;;;;5068496;28;20417;-73
2021/06/07 09:36:08;;;;;;;28.97;24.53;;;19.80;99.90;;;;;;5070243;28;20451;-73
2021/06/07 09:38:55;;;;;;;26.63;22.80;;;19.60;99.90;;;;;;5070104;28;20392;-73
2021/06/07 09:41:22;;;;;;;25.57;22.87;;;19.60;99.90;;;;;;5066904;28;20484;-73
2021/06/07 09:43:56;;;;;;;26.10;23.30;;;19.30;99.90;;;;;;5067997;28;20420;-73
2021/06/07 09:46:28;;;;;;;24.50;22.00;;;19.20;99.90;;;;;;5053635;28;20451;-71
2021/06/07 09:49:09;;;;;;;24.80;22.07;;;19.40;99.90;;;;;;5053728;28;20397;-72
2021/06/07 09:51:36;;;;;;;31.90;24.60;;;19.60;99.90;;;;;;5052141;28;20412;-72
2021/06/07 09:54:03;;;;;;;24.40;21.80;;;19.50;99.90;;;;;;5053111;28;20401;-72
2021/06/07 09:56:28;;;;;;;28.20;23.17;;;19.80;99.90;;;;;;5053047;28;20547;-72
2021/06/07 09:58:55;;;;;;;25.10;20.47;;;20.10;99.90;;;;;;5053241;28;20495;-72
2021/06/07 10:01:30;;;;;;;28.00;21.87;;;20.40;99.90;;;;;;5053126;28;20293;-72
2021/06/07 10:03:57;;;;;;;22.97;20.47;;;20.60;99.90;;;;;;5052750;28;20408;-72
2021/06/07 10:06:35;;;;;;;22.47;19.93;;;21.00;99.90;;;;;;5052473;28;20432;-72
2021/06/07 10:09:12;;;;;;;22.73;19.90;;;21.30;99.90;;;;;;5054644;28;20492;-72
2021/06/07 10:11:45;;;;;;;24.50;21.90;;;21.60;99.90;;;;;;5057139;28;20388;-72
2021/06/07 10:14:22;;;;;;;22.93;20.63;;;21.70;99.90;;;;;;5056283;28;20407;-72
2021/06/07 10:16:57;;;;;;;24.00;21.50;;;21.70;99.90;;;;;;5056133;28;20773;-72
2021/06/07 10:19:33;;;;;;;18.47;16.60;;;21.70;99.90;;;;;;5056773;28;20467;-72
2021/06/07 10:22:00;;;;;;;17.57;15.73;;;21.50;99.70;;;;;;5056646;28;20463;-72
2021/06/07 10:24:26;;;;;;;15.30;13.90;;;21.50;99.20;;;;;;5056074;28;20407;-70
2021/06/07 10:26:52;;;;;;;16.87;15.23;;;21.30;99.20;;;;;;5056131;28;20476;-72
2021/06/07 10:29:17;;;;;;;15.80;14.30;;;20.80;99.90;;;;;;5056195;28;20415;-72
2021/06/07 10:31:43;;;;;;;16.60;14.90;;;20.60;99.90;;;;;;5054326;28;20427;-72
2021/06/07 10:34:10;;;;;;;17.87;16.17;;;20.70;99.90;;;;;;5056655;28;20608;-72
2021/06/07 10:36:47;;;;;;;17.10;15.40;;;20.70;99.90;;;;;;5056492;28;20842;-72
2021/06/07 10:39:13;;;;;;;16.13;14.63;;;20.60;99.90;;;;;;5055887;28;20470;-72
2021/06/07 10:41:40;;;;;;;16.53;15.03;;;20.70;99.90;;;;;;5056460;28;20432;-72
2021/06/07 10:44:06;;;;;;;16.60;15.03;;;20.80;99.90;;;;;;5055875;28;20188;-72
2021/06/07 10:46:41;;;;;;;16.80;15.07;;;21.00;99.90;;;;;;5055834;28;20432;-72
2021/06/07 10:49:58;;;;;;;16.33;14.63;;;21.20;99.90;;;;;;5055457;28;20420;-71
2021/06/07 10:52:27;;;;;;;16.90;15.27;;;21.40;99.90;;;;;;5034263;28;20413;-72
2021/06/07 10:55:02;;;;;;;17.83;15.97;;;21.40;99.20;;;;;;5033585;28;20967;-72
2021/06/07 10:57:33;;;;;;;17.30;15.60;;;21.30;99.00;;;;;;5033893;28;20405;-72
2021/06/07 11:00:00;;;;;;;19.38;17.35;;;21.30;99.50;;;;;;5033594;28;20431;-72
2021/06/07 11:02:31;;;;;;;18.23;16.37;;;21.10;99.60;;;;;;5033858;28;20943;-73
2021/06/07 11:05:01;;;;;;;18.00;16.30;;;21.00;99.90;;;;;;5033505;28;20521;-73
2021/06/07 11:07:27;;;;;;;23.10;20.30;;;20.90;99.90;;;;;;5034145;28;20463;-72
2021/06/07 11:10:11;;;;;;;22.73;20.00;;;20.60;99.90;;;;;;5033393;28;20898;-72
2021/06/07 11:12:38;;;;;;;25.50;22.70;;;20.10;99.90;;;;;;5034169;28;20186;-72
2021/06/07 11:15:23;;;;;;;23.27;20.80;;;19.90;99.90;;;;;;5033819;28;21017;-72
2021/06/07 11:17:51;;;;;;;22.50;20.10;;;19.60;99.90;;;;;;5033481;28;20409;-72
2021/06/07 11:20:34;;;;;;;23.37;20.87;;;19.50;99.90;;;;;;5031703;28;20438;-72
2021/06/07 11:23:17;;;;;;;25.50;22.03;;;19.50;99.90;;;;;;5033106;28;20414;-73
2021/06/07 11:25:54;;;;;;;25.40;22.80;;;19.60;99.90;;;;;;5033124;28;20425;-73
2021/06/07 11:28:43;;;;;;;26.50;23.90;;;19.70;99.90;;;;;;5040378;28;20412;-73
2021/06/07 11:31:14;;;;;;;23.87;21.47;;;19.70;99.90;;;;;;5054870;28;20443;-73
2021/06/07 11:34:03;;;;;;;24.63;22.03;;;19.70;99.90;;;;;;5049281;28;20414;-73
2021/06/07 11:37:00;;;;;;;21.40;19.10;;;19.70;99.90;;;;;;5040776;28;20429;-73
2021/06/07 11:39:42;;;;;;;20.77;18.67;;;19.60;99.90;;;;;;5035449;28;20935;-72
2021/06/07 11:42:09;;;;;;;18.73;16.93;;;19.80;99.90;;;;;;5045773;28;20538;-72
2021/06/07 11:44:47;;;;;;;18.03;16.13;;;20.00;99.90;;;;;;5053548;28;20456;-72
2021/06/07 11:47:18;;;;;;;16.47;14.87;;;20.10;99.90;;;;;;5054613;28;20457;-72
2021/06/07 11:49:56;;;;;;;17.63;15.93;;;19.90;99.90;;;;;;5054626;28;20428;-72
2021/06/07 11:52:47;;;;;;;17.63;15.83;;;19.90;99.90;;;;;;5054883;28;20409;-72
2021/06/07 11:55:32;;;;;;;17.60;15.90;;;19.90;99.90;;;;;;5054880;28;20441;-72
2021/06/07 11:58:19;;;;;;;16.83;15.27;;;19.70;99.90;;;;;;5054859;28;20429;-72
2021/06/07 12:00:51;;;;;;;16.90;15.20;;;19.60;99.90;;;;;;5054197;28;20487;-73
2021/06/07 12:03:22;;;;;;;17.23;15.63;;;19.50;99.90;;;;;;5054649;28;20788;-71
2021/06/07 12:05:48;;;;;;;16.60;15.07;;;19.40;99.90;;;;;;5054492;28;20420;-73
2021/06/07 12:08:16;;;;;;;16.30;14.80;;;19.40;99.90;;;;;;5054554;28;20519;-72
2021/06/07 12:10:44;;;;;;;17.73;15.93;;;19.30;99.90;;;;;;5053419;28;20407;-71
2021/06/07 12:13:24;;;;;;;17.43;15.73;;;19.30;99.90;;;;;;5041048;28;20178;-72
2021/06/07 12:16:00;;;;;;;16.63;14.97;;;19.30;99.90;;;;;;5036872;28;20427;-73
2021/06/07 12:18:47;;;;;;;15.83;14.43;;;19.40;99.90;;;;;;5039282;28;20515;-75
2021/06/07 12:21:20;;;;;;;14.03;12.70;;;19.50;99.90;;;;;;5041227;28;20464;-72
2021/06/07 12:23:53;;;;;;;13.98;12.70;;;19.50;99.90;;;;;;5042076;28;20418;-72
2021/06/07 12:29:39;;;;;;;10.90;9.80;;;19.50;99.90;;;;;;5036494;28;20902;-72
2021/06/07 12:32:13;;;;;;;10.90;9.90;;;19.40;99.90;;;;;;5047481;28;20429;-72
2021/06/07 12:35:00;;;;;;;9.60;8.70;;;19.60;99.90;;;;;;5046263;28;22245;-72
2021/06/07 12:37:31;;;;;;;9.87;8.87;;;19.70;99.90;;;;;;5037631;28;20428;-72
2021/06/07 12:40:15;;;;;;;9.37;8.57;;;19.80;99.90;;;;;;5046147;28;20448;-72